Tulip, Indiana
Current Conditions -  °F | °C
As of 1:08 AM on Thursday 27 Nov 2014 (Local Time) from KBMG Reporting Station
Overcast Overcast  
Wind Chill: 22°   Ceiling: 11000
Heat Index: 30°   Visibility: 10mi
Dew Point: 25°   Wind: 8mph
Humidity: 82%   Direction: 360°N
Pressure: 30.1"   Gusts: NA
Location:  39.0306°N, 86.8553°W
Report Text: KBMG 270608Z AUTO 36007KT 10SM SCT026 SCT070 OVC110 M01/M04 A3010 RMK AO2 T10111039
Loading
Personal Weather Stations






























Interactive Weather Map New forecast layout! Learn more

10-Day Weather Forecast

Advertisements
Track Severe Weather on mobile